createdAt,value
2022-11-04T00:00:28.648Z,10.00
2022-11-04T00:03:00.853Z,12.10
2022-11-04T00:05:29.413Z,9.60
2022-11-04T00:08:16.411Z,9.10
2022-11-04T00:11:03.650Z,10.40
2022-11-04T00:13:32.135Z,9.00
2022-11-04T00:16:21.889Z,9.10
2022-11-04T00:18:50.073Z,9.40
2022-11-04T00:21:36.796Z,10.50
2022-11-04T00:24:25.570Z,9.60
2022-11-04T00:27:12.887Z,10.40
2022-11-04T00:29:41.163Z,10.70
2022-11-04T00:32:29.294Z,9.60
2022-11-04T00:34:57.332Z,8.10
2022-11-04T00:37:26.745Z,8.40
2022-11-04T00:39:54.637Z,8.30
2022-11-04T00:42:22.609Z,7.70
2022-11-04T00:44:50.469Z,7.70
2022-11-04T00:47:18.750Z,8.60
2022-11-04T00:49:46.716Z,7.70
2022-11-04T00:52:14.583Z,8.50
2022-11-04T00:54:42.656Z,7.20
2022-11-04T00:57:12.659Z,7.70
2022-11-04T00:59:41.614Z,8.30
2022-11-04T01:02:11.167Z,7.90
2022-11-04T01:04:39.760Z,8.00
2022-11-04T01:07:08.064Z,6.60
2022-11-04T01:09:36.113Z,8.20
2022-11-04T01:12:04.966Z,7.00
2022-11-04T01:14:32.877Z,6.30
2022-11-04T01:17:00.834Z,6.60
2022-11-04T01:19:28.902Z,6.90
2022-11-04T01:21:56.759Z,6.80
2022-11-04T01:24:24.740Z,8.30
2022-11-04T01:26:52.814Z,8.10
2022-11-04T01:29:20.682Z,6.10
2022-11-04T01:31:48.930Z,8.20
2022-11-04T01:34:16.817Z,7.40
2022-11-04T01:36:44.792Z,7.10
2022-11-04T01:39:13.619Z,6.40
2022-11-04T01:41:41.965Z,6.80
2022-11-04T01:44:43.114Z,7.40
2022-11-04T01:47:29.406Z,7.20
2022-11-04T01:50:24.975Z,6.30
2022-11-04T01:53:08.209Z,5.90
2022-11-04T01:55:45.440Z,6.00
2022-11-04T01:58:18.633Z,7.50
2022-11-04T02:00:46.923Z,6.90
2022-11-04T02:03:23.073Z,7.20
2022-11-04T02:05:51.957Z,6.20
2022-11-04T02:08:21.432Z,6.10
2022-11-04T02:10:59.425Z,6.90
2022-11-04T02:13:30.287Z,5.40
2022-11-04T02:16:40.055Z,5.80
2022-11-04T02:19:26.809Z,5.70
2022-11-04T02:22:16.386Z,5.80
2022-11-04T02:25:20.993Z,5.90
2022-11-04T02:28:28.671Z,6.00
2022-11-04T02:31:19.270Z,7.40
2022-11-04T02:34:05.978Z,7.40
2022-11-04T02:36:54.940Z,7.30
2022-11-04T02:39:31.821Z,6.00
2022-11-04T02:42:30.405Z,6.70
2022-11-04T02:45:12.581Z,6.80
2022-11-04T02:47:49.533Z,5.80
2022-11-04T02:50:31.600Z,7.40
2022-11-04T02:53:13.018Z,5.90
2022-11-04T02:55:48.732Z,6.80
2022-11-04T02:58:25.902Z,6.00
2022-11-04T03:00:56.849Z,6.20
2022-11-04T03:03:32.188Z,6.00
2022-11-04T03:06:04.461Z,5.80
2022-11-04T03:08:39.603Z,6.00
2022-11-04T03:11:22.303Z,6.80
2022-11-04T03:14:08.374Z,6.30
2022-11-04T03:16:58.192Z,7.30
2022-11-04T03:19:40.908Z,6.80
2022-11-04T03:22:19.007Z,6.80
2022-11-04T03:24:49.547Z,5.60
2022-11-04T03:27:36.178Z,6.80
2022-11-04T03:33:25.542Z,7.00
2022-11-04T03:35:54.332Z,5.90
2022-11-04T03:38:23.529Z,6.30
2022-11-04T03:40:52.218Z,6.40
2022-11-04T03:43:27.401Z,5.90
2022-11-04T03:45:56.509Z,6.50
2022-11-04T03:48:25.041Z,6.20
2022-11-04T03:50:53.000Z,5.90
2022-11-04T03:53:24.131Z,5.90
2022-11-04T03:56:34.714Z,6.00
2022-11-04T04:00:01.215Z,6.20
2022-11-04T04:02:50.251Z,5.80
2022-11-04T04:05:28.446Z,7.20
2022-11-04T04:08:35.621Z,6.50
2022-11-04T04:11:45.817Z,5.90
2022-11-04T04:14:49.278Z,5.60
2022-11-04T04:17:39.833Z,6.40
2022-11-04T04:20:18.769Z,6.10
2022-11-04T04:22:55.072Z,7.10
2022-11-04T04:25:47.000Z,6.30
2022-11-04T04:28:18.522Z,6.30
2022-11-04T04:30:47.007Z,6.10
2022-11-04T04:33:19.149Z,6.80
2022-11-04T04:35:56.784Z,6.50
2022-11-04T04:38:47.482Z,5.20
2022-11-04T04:41:46.395Z,6.40
2022-11-04T04:44:44.261Z,6.30
2022-11-04T04:47:20.218Z,7.60
2022-11-04T04:49:57.551Z,6.60
2022-11-04T04:52:33.722Z,6.60
2022-11-04T04:55:01.846Z,6.50
2022-11-04T04:57:29.740Z,6.10
2022-11-04T04:59:57.591Z,6.90
2022-11-04T05:02:25.741Z,6.10
2022-11-04T05:04:53.926Z,6.70
2022-11-04T05:07:23.020Z,6.40
2022-11-04T05:09:50.992Z,6.40
2022-11-04T05:12:19.073Z,6.10
2022-11-04T05:14:46.980Z,6.00
2022-11-04T05:17:15.778Z,5.80
2022-11-04T05:19:43.793Z,6.10
2022-11-04T05:22:11.759Z,5.80
2022-11-04T05:24:39.885Z,7.20
2022-11-04T05:27:07.906Z,6.80
2022-11-04T05:29:35.874Z,6.20
2022-11-04T05:32:04.711Z,6.30
2022-11-04T05:34:32.928Z,6.60
2022-11-04T05:37:00.910Z,6.60
2022-11-04T05:39:28.880Z,6.30
2022-11-04T05:41:56.869Z,6.10
2022-11-04T05:44:24.921Z,6.30
2022-11-04T05:46:53.117Z,6.40
2022-11-04T05:49:21.062Z,6.10
2022-11-04T05:51:49.035Z,5.70
2022-11-04T05:54:16.980Z,6.20
2022-11-04T05:56:45.121Z,6.20
2022-11-04T05:59:13.005Z,5.50
2022-11-04T06:01:44.049Z,6.10
2022-11-04T06:04:19.155Z,5.60
2022-11-04T06:06:47.193Z,5.60
2022-11-04T06:09:15.269Z,5.70
2022-11-04T06:11:43.963Z,6.40
2022-11-04T06:14:17.528Z,5.90
2022-11-04T06:16:46.720Z,7.30
2022-11-04T06:19:16.233Z,5.70
2022-11-04T06:21:44.394Z,6.00
2022-11-04T06:24:12.401Z,7.20
2022-11-04T06:26:40.556Z,5.50
2022-11-04T06:29:09.982Z,6.30
2022-11-04T06:31:38.766Z,6.50
2022-11-04T06:34:07.062Z,6.30
2022-11-04T06:36:35.202Z,6.30
2022-11-04T06:39:06.497Z,7.70
2022-11-04T06:41:35.146Z,6.50
2022-11-04T06:44:03.856Z,5.80
2022-11-04T06:46:43.178Z,5.30
2022-11-04T06:49:15.424Z,6.60
2022-11-04T06:51:44.588Z,6.40
2022-11-04T06:54:14.276Z,6.50
2022-11-04T06:56:43.556Z,6.80
2022-11-04T06:59:20.531Z,6.60
2022-11-04T07:01:52.167Z,6.00
2022-11-04T07:04:20.871Z,5.70
2022-11-04T07:06:48.970Z,6.80
2022-11-04T07:09:16.912Z,5.90
2022-11-04T07:11:45.992Z,7.10
2022-11-04T07:14:14.897Z,6.80
2022-11-04T07:16:43.379Z,6.80
2022-11-04T07:19:11.357Z,6.50
2022-11-04T07:21:39.246Z,7.60
2022-11-04T07:24:07.578Z,7.30
2022-11-04T07:26:35.711Z,6.40
2022-11-04T07:29:05.485Z,6.90
2022-11-04T07:31:34.313Z,8.50
2022-11-04T07:34:03.264Z,8.00
2022-11-04T07:36:31.539Z,6.80
2022-11-04T07:38:59.621Z,6.30
2022-11-04T07:41:29.525Z,7.10
2022-11-04T07:43:59.341Z,8.00
2022-11-04T07:46:27.252Z,7.00
2022-11-04T07:48:59.124Z,7.30
2022-11-04T07:51:27.831Z,8.30
2022-11-04T07:53:56.408Z,7.10
2022-11-04T07:56:25.240Z,6.70
2022-11-04T07:58:53.813Z,7.50
2022-11-04T08:01:23.928Z,6.30
2022-11-04T08:03:52.930Z,8.50
2022-11-04T08:06:22.086Z,6.70
2022-11-04T08:08:50.289Z,7.70
2022-11-04T08:11:25.439Z,8.10
2022-11-04T08:13:54.122Z,6.50
2022-11-04T08:16:30.027Z,7.20
2022-11-04T08:19:02.750Z,9.30
2022-11-04T08:21:33.584Z,7.80
2022-11-04T08:24:06.236Z,9.10
2022-11-04T08:26:34.332Z,9.40
2022-11-04T08:29:09.456Z,7.90
2022-11-04T08:31:37.871Z,8.30
2022-11-04T08:34:08.605Z,7.00
2022-11-04T08:36:41.136Z,7.70
2022-11-04T08:39:11.531Z,7.20
2022-11-04T08:41:45.681Z,6.80
2022-11-04T08:44:15.444Z,7.40
2022-11-04T08:46:46.167Z,7.50
2022-11-04T08:49:19.690Z,6.60
2022-11-04T08:51:56.434Z,7.40
2022-11-04T08:54:26.350Z,7.00
2022-11-04T08:56:54.731Z,8.10
2022-11-04T08:59:22.695Z,7.30
2022-11-04T09:01:50.739Z,7.30
2022-11-04T09:04:19.884Z,7.50
2022-11-04T09:06:48.864Z,8.00
2022-11-04T09:09:18.302Z,9.80
2022-11-04T09:11:47.486Z,9.70
2022-11-04T09:14:15.844Z,8.40
2022-11-04T09:16:44.343Z,6.60
2022-11-04T09:19:12.266Z,7.70
2022-11-04T09:21:40.673Z,7.60
2022-11-04T09:24:09.079Z,7.10
2022-11-04T09:26:37.430Z,7.90
2022-11-04T09:29:08.406Z,6.70
2022-11-04T09:31:38.069Z,6.80
2022-11-04T09:34:06.663Z,8.80
2022-11-04T09:36:34.707Z,6.40
2022-11-04T09:39:02.705Z,7.20
2022-11-04T09:41:55.045Z,6.70
2022-11-04T09:44:28.483Z,6.20
2022-11-04T09:47:03.561Z,6.30
2022-11-04T09:49:40.217Z,7.00
2022-11-04T09:52:22.662Z,7.50
2022-11-04T09:55:10.600Z,5.70
2022-11-04T09:57:38.578Z,6.50
2022-11-04T10:00:10.648Z,5.90
2022-11-04T10:02:56.624Z,6.30
2022-11-04T10:05:45.716Z,8.50
2022-11-04T10:08:43.253Z,6.60
2022-11-04T10:11:24.947Z,6.40
2022-11-04T10:14:29.253Z,7.30
2022-11-04T10:17:36.871Z,6.50
2022-11-04T10:20:27.773Z,6.40
2022-11-04T10:23:07.769Z,7.00
2022-11-04T10:26:17.163Z,6.30
2022-11-04T10:29:05.777Z,6.30
2022-11-04T10:31:38.850Z,7.20
2022-11-04T10:34:32.886Z,5.60
2022-11-04T10:37:01.778Z,6.20
2022-11-04T10:39:34.880Z,6.40
2022-11-04T10:42:05.919Z,6.40
2022-11-04T10:44:37.248Z,6.20
2022-11-04T10:47:35.745Z,6.40
2022-11-04T10:50:41.547Z,6.50
2022-11-04T10:53:20.840Z,6.30
2022-11-04T10:56:37.372Z,7.30
2022-11-04T10:59:38.285Z,7.00
2022-11-04T11:02:08.143Z,6.00
2022-11-04T11:04:40.467Z,6.60
2022-11-04T11:07:11.136Z,6.10
2022-11-04T11:10:00.405Z,6.20
2022-11-04T11:12:50.682Z,5.60
2022-11-04T11:15:25.494Z,6.80
2022-11-04T11:18:03.494Z,6.10
2022-11-04T11:20:33.566Z,7.30
2022-11-04T11:23:05.007Z,8.00
2022-11-04T11:25:36.064Z,6.50
2022-11-04T11:28:11.128Z,7.00
2022-11-04T11:30:46.717Z,5.90
2022-11-04T11:33:32.141Z,7.20
2022-11-04T11:36:28.733Z,5.60
2022-11-04T11:38:57.997Z,6.40
2022-11-04T11:41:33.870Z,5.80
2022-11-04T11:44:23.540Z,5.70
2022-11-04T11:46:57.615Z,5.70
2022-11-04T11:49:31.321Z,7.00
2022-11-04T11:52:30.466Z,5.60
2022-11-04T11:55:13.101Z,5.40
2022-11-04T12:01:03.137Z,6.30
2022-11-04T12:10:04.760Z,5.40
2022-11-04T12:13:05.434Z,6.90
2022-11-04T12:16:13.730Z,6.50
2022-11-04T12:18:56.917Z,5.10
2022-11-04T12:21:36.679Z,6.40
2022-11-04T12:24:19.525Z,5.10
2022-11-04T12:27:19.240Z,5.60
2022-11-04T12:30:01.236Z,5.50
2022-11-04T12:33:17.264Z,5.40
2022-11-04T12:39:08.681Z,4.30
2022-11-04T12:42:31.356Z,5.20
2022-11-04T12:45:21.519Z,5.30
2022-11-04T12:47:49.800Z,4.90
2022-11-04T12:50:40.214Z,5.40
2022-11-04T12:53:50.141Z,4.80
2022-11-04T12:56:20.603Z,5.50
2022-11-04T12:59:19.975Z,4.80
2022-11-04T13:02:45.381Z,5.40
2022-11-04T13:05:33.023Z,5.60
2022-11-04T13:08:38.967Z,5.50
2022-11-04T13:11:33.378Z,5.20
2022-11-04T13:14:29.694Z,5.00
2022-11-04T13:17:07.077Z,5.10
2022-11-04T13:19:45.817Z,6.00
2022-11-04T13:22:23.137Z,5.00
2022-11-04T13:25:05.616Z,5.40
2022-11-04T13:27:41.536Z,5.70
2022-11-04T13:30:40.321Z,5.80
2022-11-04T13:33:09.220Z,5.50
2022-11-04T13:36:13.066Z,6.00
2022-11-04T13:38:49.160Z,5.90
2022-11-04T13:41:40.883Z,5.30
2022-11-04T13:44:28.567Z,5.00
2022-11-04T13:47:03.295Z,5.30
2022-11-04T13:49:37.235Z,5.40
2022-11-04T13:52:14.430Z,5.40
2022-11-04T13:55:06.949Z,4.50
2022-11-04T13:57:54.707Z,6.00
2022-11-04T14:00:27.078Z,4.70
2022-11-04T14:03:21.541Z,5.30
2022-11-04T14:06:08.837Z,5.80
2022-11-04T14:09:35.720Z,4.70
2022-11-04T14:12:10.650Z,5.50
2022-11-04T14:14:45.622Z,5.30
2022-11-04T14:17:35.578Z,5.40
2022-11-04T14:20:25.885Z,5.20
2022-11-04T14:23:00.978Z,4.80
2022-11-04T14:26:05.586Z,5.60
2022-11-04T14:28:35.074Z,5.40
2022-11-04T14:31:08.966Z,4.80
2022-11-04T14:33:58.519Z,5.10
2022-11-04T14:36:36.293Z,5.80
2022-11-04T14:39:10.140Z,5.40
2022-11-04T14:41:40.939Z,6.00
2022-11-04T14:44:21.771Z,5.50
2022-11-04T14:46:59.754Z,6.30
2022-11-04T14:49:52.468Z,6.50
2022-11-04T14:52:45.029Z,7.00
2022-11-04T14:55:22.842Z,5.50
2022-11-04T14:58:00.841Z,5.70
2022-11-04T15:00:34.819Z,6.30
2022-11-04T15:04:04.564Z,4.70
2022-11-04T15:06:11.661Z,6.00
2022-11-04T15:08:43.000Z,5.40
2022-11-04T15:11:15.689Z,4.90
2022-11-04T15:13:45.391Z,6.80
2022-11-04T15:16:26.213Z,5.80
2022-11-04T15:18:58.840Z,6.90
2022-11-04T15:21:27.532Z,5.50
2022-11-04T15:23:56.759Z,5.30
2022-11-04T15:26:34.973Z,6.20
2022-11-04T15:29:11.636Z,6.10
2022-11-04T15:31:59.659Z,5.50
2022-11-04T15:34:36.640Z,6.60
2022-11-04T15:38:04.500Z,6.20
2022-11-04T15:40:35.520Z,5.80
2022-11-04T15:43:05.205Z,6.20
2022-11-04T15:45:59.949Z,5.70
2022-11-04T15:48:35.033Z,7.10
2022-11-04T15:51:24.658Z,7.70
2022-11-04T15:58:23.505Z,6.30
2022-11-04T16:01:55.830Z,6.90
2022-11-04T16:05:11.172Z,7.60
2022-11-04T16:07:48.392Z,7.00
2022-11-04T16:10:31.529Z,6.40
2022-11-04T16:14:21.951Z,6.70
2022-11-04T16:18:05.496Z,6.90
2022-11-04T16:25:24.262Z,7.20
2022-11-04T16:27:52.360Z,9.00
2022-11-04T16:31:58.752Z,7.90
2022-11-04T16:34:29.276Z,7.20
2022-11-04T16:37:09.845Z,7.50
2022-11-04T16:50:33.177Z,6.30
2022-11-04T16:53:03.736Z,7.20
2022-11-04T16:55:32.620Z,7.50
2022-11-04T16:58:06.140Z,8.20
2022-11-04T17:00:34.780Z,7.70
2022-11-04T17:03:22.924Z,7.20
2022-11-04T17:05:56.449Z,7.60
2022-11-04T17:08:26.799Z,6.80
2022-11-04T17:10:55.140Z,11.00
2022-11-04T17:13:23.048Z,7.60
2022-11-04T17:15:51.071Z,7.60
2022-11-04T17:18:19.273Z,8.40
2022-11-04T17:20:55.252Z,7.80
2022-11-04T17:23:24.909Z,7.70
2022-11-04T17:25:53.183Z,7.50
2022-11-04T17:28:21.260Z,8.00
2022-11-04T17:30:49.532Z,7.90
2022-11-04T17:33:20.031Z,7.50
2022-11-04T17:35:50.828Z,9.70
2022-11-04T17:38:19.281Z,7.90
2022-11-04T17:41:06.090Z,7.20
2022-11-04T17:43:52.788Z,6.70
2022-11-04T17:46:41.716Z,7.90
2022-11-04T17:49:22.785Z,6.70
2022-11-04T17:51:54.305Z,7.10
2022-11-04T17:54:32.579Z,6.40
2022-11-04T17:57:01.182Z,8.40
2022-11-04T17:59:32.546Z,8.40
2022-11-04T18:02:04.658Z,7.90
2022-11-04T18:04:32.915Z,7.30
2022-11-04T18:07:02.982Z,8.30
2022-11-04T18:09:34.891Z,7.00
2022-11-04T18:12:21.490Z,7.40
2022-11-04T18:14:49.738Z,8.60
2022-11-04T18:17:17.675Z,8.70
2022-11-04T18:19:45.980Z,8.70
2022-11-04T18:22:14.759Z,7.30
2022-11-04T18:24:43.224Z,8.80
2022-11-04T18:27:11.336Z,7.70
2022-11-04T18:29:39.380Z,7.40
2022-11-04T18:32:07.708Z,8.00
2022-11-04T18:34:35.847Z,7.80
2022-11-04T18:37:04.063Z,8.60
2022-11-04T18:39:31.998Z,6.70
2022-11-04T18:42:00.084Z,8.60
2022-11-04T18:44:28.227Z,5.80
2022-11-04T18:46:56.088Z,6.80
2022-11-04T18:49:24.007Z,8.20
2022-11-04T18:51:51.881Z,7.60
2022-11-04T18:54:20.755Z,8.20
2022-11-04T18:56:49.507Z,8.20
2022-11-04T18:59:18.514Z,7.20
2022-11-04T19:01:46.635Z,6.70
2022-11-04T19:04:14.861Z,7.80
2022-11-04T19:06:45.127Z,6.70
2022-11-04T19:09:45.345Z,7.60
2022-11-04T19:12:24.856Z,7.20
2022-11-04T19:14:53.435Z,7.80
2022-11-04T19:17:22.436Z,7.40
2022-11-04T19:19:51.579Z,8.30
2022-11-04T19:22:19.556Z,7.70
2022-11-04T19:24:47.568Z,7.10
2022-11-04T19:27:17.994Z,7.30
2022-11-04T19:29:46.503Z,7.10
2022-11-04T19:32:14.774Z,8.70
2022-11-04T19:34:43.631Z,7.10
2022-11-04T19:37:11.791Z,7.40
2022-11-04T19:39:40.608Z,7.70
2022-11-04T19:42:30.927Z,6.80
2022-11-04T19:44:58.869Z,7.80
2022-11-04T19:47:26.838Z,7.70
2022-11-04T19:49:55.838Z,8.80
2022-11-04T19:52:24.006Z,8.20
2022-11-04T19:54:52.079Z,7.20
2022-11-04T19:57:20.043Z,6.80
2022-11-04T19:59:49.210Z,7.30
2022-11-04T20:02:17.892Z,7.00
2022-11-04T20:04:47.866Z,6.90
2022-11-04T20:07:17.138Z,6.70
2022-11-04T20:09:45.119Z,7.40
2022-11-04T20:12:32.256Z,6.60
2022-11-04T20:15:01.124Z,6.10
2022-11-04T20:17:32.680Z,6.20
2022-11-04T20:20:00.763Z,7.90
2022-11-04T20:22:28.719Z,6.20
2022-11-04T20:24:56.899Z,7.20
2022-11-04T20:27:24.866Z,7.50
2022-11-04T20:29:53.345Z,6.30
2022-11-04T20:32:22.484Z,7.60
2022-11-04T20:34:51.536Z,6.70
2022-11-04T20:37:19.432Z,6.60
2022-11-04T20:39:47.606Z,6.50
2022-11-04T20:42:15.925Z,6.20
2022-11-04T20:44:43.927Z,8.00
2022-11-04T20:47:12.111Z,5.80
2022-11-04T20:49:40.082Z,7.00
2022-11-04T20:52:08.242Z,6.60
2022-11-04T20:54:36.421Z,5.90
2022-11-04T20:57:04.491Z,5.80
2022-11-04T20:59:33.688Z,6.10
2022-11-04T21:02:01.808Z,6.30
2022-11-04T21:04:34.926Z,6.90
2022-11-04T21:07:05.277Z,6.80
2022-11-04T21:09:33.246Z,6.30
2022-11-04T21:12:01.236Z,6.10
2022-11-04T21:14:31.748Z,5.90
2022-11-04T21:16:59.730Z,6.90
2022-11-04T21:19:28.076Z,5.60
2022-11-04T21:21:56.996Z,5.80
2022-11-04T21:24:25.137Z,5.60
2022-11-04T21:26:53.334Z,6.10
2022-11-04T21:29:21.672Z,6.20
2022-11-04T21:31:49.784Z,5.40
2022-11-04T21:34:18.056Z,5.50
2022-11-04T21:36:46.553Z,6.10
2022-11-04T21:39:14.601Z,6.60
2022-11-04T21:41:42.584Z,5.70
2022-11-04T21:44:14.122Z,5.70
2022-11-04T21:46:42.663Z,6.10
2022-11-04T21:49:12.739Z,6.50
2022-11-04T21:51:40.915Z,6.20
2022-11-04T21:54:09.258Z,6.80
2022-11-04T21:56:37.684Z,9.00
2022-11-04T21:59:06.777Z,8.40
2022-11-04T22:01:35.249Z,8.50
2022-11-04T22:04:04.473Z,9.20
2022-11-04T22:06:35.555Z,10.30
2022-11-04T22:09:08.104Z,9.00
2022-11-04T22:11:39.649Z,8.80
2022-11-04T22:14:11.705Z,8.90
2022-11-04T22:16:40.805Z,10.20
2022-11-04T22:19:13.760Z,9.00
2022-11-04T22:21:45.705Z,10.00
2022-11-04T22:24:17.868Z,9.10
2022-11-04T22:26:47.916Z,10.20
2022-11-04T22:29:16.292Z,8.30
2022-11-04T22:31:44.884Z,10.00
2022-11-04T22:34:12.986Z,10.40
2022-11-04T22:36:41.174Z,9.40
2022-11-04T22:39:16.436Z,8.20
2022-11-04T22:41:46.618Z,8.30
2022-11-04T22:44:15.492Z,9.10
2022-11-04T22:46:43.972Z,9.00
2022-11-04T22:49:13.262Z,7.90
2022-11-04T22:51:41.583Z,8.60
2022-11-04T22:54:10.879Z,8.20
2022-11-04T22:56:39.116Z,9.30
2022-11-04T22:59:08.044Z,9.60
2022-11-04T23:01:37.086Z,8.20
2022-11-04T23:04:05.979Z,9.00
2022-11-04T23:06:34.375Z,8.20
2022-11-04T23:09:02.443Z,7.20
2022-11-04T23:11:51.099Z,8.50
2022-11-04T23:14:40.161Z,7.50
2022-11-04T23:17:45.413Z,10.00
2022-11-04T23:20:16.240Z,8.60
2022-11-04T23:23:03.473Z,7.50
2022-11-04T23:25:31.551Z,8.80
2022-11-04T23:28:18.757Z,7.50
2022-11-04T23:30:51.824Z,9.30
2022-11-04T23:33:39.998Z,8.20
2022-11-04T23:36:28.032Z,7.20
2022-11-04T23:38:56.415Z,7.40
2022-11-04T23:41:43.734Z,8.30
2022-11-04T23:44:31.872Z,6.70
2022-11-04T23:47:18.584Z,7.30
2022-11-04T23:50:05.425Z,6.80
2022-11-04T23:52:52.906Z,7.80
2022-11-04T23:55:41.383Z,6.70
2022-11-04T23:58:29.002Z,7.20
